sensor_id;sensor_type;location;lat;lon;timestamp;P1;durP1;ratioP1;P2;durP2;ratioP2
12840;SDS011;6487;48.626;12.486;2022-11-02T00:01:30;9.77;;;8.93;;
12840;SDS011;6487;48.626;12.486;2022-11-02T00:04:08;8.80;;;8.10;;
12840;SDS011;6487;48.626;12.486;2022-11-02T00:06:36;10.17;;;8.80;;
12840;SDS011;6487;48.626;12.486;2022-11-02T00:09:06;23.63;;;9.13;;
12840;SDS011;6487;48.626;12.486;2022-11-02T00:11:36;9.77;;;8.33;;
12840;SDS011;6487;48.626;12.486;2022-11-02T00:14:04;7.77;;;7.27;;
12840;SDS011;6487;48.626;12.486;2022-11-02T00:16:32;7.97;;;7.27;;
12840;SDS011;6487;48.626;12.486;2022-11-02T00:19:03;27.97;;;8.23;;
12840;SDS011;6487;48.626;12.486;2022-11-02T00:21:32;9.37;;;7.47;;
12840;SDS011;6487;48.626;12.486;2022-11-02T00:24:02;7.50;;;6.90;;
12840;SDS011;6487;48.626;12.486;2022-11-02T00:26:32;7.47;;;6.87;;
12840;SDS011;6487;48.626;12.486;2022-11-02T00:29:03;7.63;;;7.03;;
12840;SDS011;6487;48.626;12.486;2022-11-02T00:31:32;16.97;;;6.33;;
12840;SDS011;6487;48.626;12.486;2022-11-02T00:34:00;6.73;;;6.13;;
12840;SDS011;6487;48.626;12.486;2022-11-02T00:36:28;8.53;;;5.67;;
12840;SDS011;6487;48.626;12.486;2022-11-02T00:38:57;7.87;;;6.27;;
12840;SDS011;6487;48.626;12.486;2022-11-02T00:41:25;7.70;;;5.73;;
12840;SDS011;6487;48.626;12.486;2022-11-02T00:43:55;6.20;;;5.70;;
12840;SDS011;6487;48.626;12.486;2022-11-02T00:46:23;16.90;;;7.37;;
12840;SDS011;6487;48.626;12.486;2022-11-02T00:48:51;9.00;;;6.57;;
12840;SDS011;6487;48.626;12.486;2022-11-02T00:51:20;10.40;;;6.43;;
12840;SDS011;6487;48.626;12.486;2022-11-02T00:53:48;6.70;;;6.20;;
12840;SDS011;6487;48.626;12.486;2022-11-02T00:56:16;6.00;;;5.60;;
12840;SDS011;6487;48.626;12.486;2022-11-02T00:58:44;6.83;;;6.33;;
12840;SDS011;6487;48.626;12.486;2022-11-02T01:01:14;5.87;;;5.37;;
12840;SDS011;6487;48.626;12.486;2022-11-02T01:03:42;9.77;;;5.93;;
12840;SDS011;6487;48.626;12.486;2022-11-02T01:06:12;5.60;;;5.20;;
12840;SDS011;6487;48.626;12.486;2022-11-02T01:08:42;5.73;;;5.33;;
12840;SDS011;6487;48.626;12.486;2022-11-02T01:11:11;5.17;;;4.77;;
12840;SDS011;6487;48.626;12.486;2022-11-02T01:13:41;5.20;;;4.90;;
12840;SDS011;6487;48.626;12.486;2022-11-02T01:16:09;5.60;;;5.13;;
12840;SDS011;6487;48.626;12.486;2022-11-02T01:18:40;5.70;;;5.20;;
12840;SDS011;6487;48.626;12.486;2022-11-02T01:21:09;8.13;;;5.13;;
12840;SDS011;6487;48.626;12.486;2022-11-02T01:23:38;5.60;;;5.17;;
12840;SDS011;6487;48.626;12.486;2022-11-02T01:26:07;5.53;;;4.70;;
12840;SDS011;6487;48.626;12.486;2022-11-02T01:28:37;4.63;;;4.30;;
12840;SDS011;6487;48.626;12.486;2022-11-02T01:31:06;5.20;;;4.80;;
12840;SDS011;6487;48.626;12.486;2022-11-02T01:33:36;13.97;;;4.80;;
12840;SDS011;6487;48.626;12.486;2022-11-02T01:36:11;13.80;;;5.10;;
12840;SDS011;6487;48.626;12.486;2022-11-02T01:38:41;7.50;;;4.43;;
12840;SDS011;6487;48.626;12.486;2022-11-02T01:41:10;4.93;;;4.40;;
12840;SDS011;6487;48.626;12.486;2022-11-02T01:43:40;4.00;;;3.67;;
12840;SDS011;6487;48.626;12.486;2022-11-02T01:46:13;4.87;;;4.40;;
12840;SDS011;6487;48.626;12.486;2022-11-02T01:48:50;4.67;;;4.27;;
12840;SDS011;6487;48.626;12.486;2022-11-02T01:51:24;4.30;;;4.00;;
12840;SDS011;6487;48.626;12.486;2022-11-02T01:53:56;3.93;;;3.63;;
12840;SDS011;6487;48.626;12.486;2022-11-02T01:56:30;4.57;;;3.80;;
12840;SDS011;6487;48.626;12.486;2022-11-02T01:59:00;3.93;;;3.70;;
12840;SDS011;6487;48.626;12.486;2022-11-02T02:01:31;4.30;;;3.80;;
12840;SDS011;6487;48.626;12.486;2022-11-02T02:04:01;4.33;;;4.00;;
12840;SDS011;6487;48.626;12.486;2022-11-02T02:06:29;4.30;;;4.00;;
12840;SDS011;6487;48.626;12.486;2022-11-02T02:08:59;5.27;;;4.20;;
12840;SDS011;6487;48.626;12.486;2022-11-02T02:11:32;4.93;;;4.53;;
12840;SDS011;6487;48.626;12.486;2022-11-02T02:14:03;4.63;;;4.23;;
12840;SDS011;6487;48.626;12.486;2022-11-02T02:16:41;4.93;;;4.53;;
12840;SDS011;6487;48.626;12.486;2022-11-02T02:19:38;5.23;;;4.73;;
12840;SDS011;6487;48.626;12.486;2022-11-02T02:22:26;4.70;;;4.00;;
12840;SDS011;6487;48.626;12.486;2022-11-02T02:28:47;3.90;;;3.60;;
12840;SDS011;6487;48.626;12.486;2022-11-02T02:31:22;15.93;;;4.00;;
12840;SDS011;6487;48.626;12.486;2022-11-02T02:34:00;3.87;;;3.57;;
12840;SDS011;6487;48.626;12.486;2022-11-02T02:36:37;3.97;;;3.43;;
12840;SDS011;6487;48.626;12.486;2022-11-02T02:39:18;4.30;;;3.97;;
12840;SDS011;6487;48.626;12.486;2022-11-02T02:41:53;4.10;;;3.80;;
12840;SDS011;6487;48.626;12.486;2022-11-02T02:44:27;3.40;;;3.10;;
12840;SDS011;6487;48.626;12.486;2022-11-02T02:47:01;3.83;;;3.40;;
12840;SDS011;6487;48.626;12.486;2022-11-02T02:49:34;4.47;;;4.07;;
12840;SDS011;6487;48.626;12.486;2022-11-02T02:52:14;5.00;;;4.37;;
12840;SDS011;6487;48.626;12.486;2022-11-02T02:54:46;4.53;;;4.23;;
12840;SDS011;6487;48.626;12.486;2022-11-02T02:57:18;4.27;;;3.97;;
12840;SDS011;6487;48.626;12.486;2022-11-02T02:59:50;4.80;;;4.40;;
12840;SDS011;6487;48.626;12.486;2022-11-02T03:02:20;4.83;;;4.40;;
12840;SDS011;6487;48.626;12.486;2022-11-02T03:04:52;5.10;;;4.70;;
12840;SDS011;6487;48.626;12.486;2022-11-02T03:07:22;4.27;;;3.97;;
12840;SDS011;6487;48.626;12.486;2022-11-02T03:10:00;3.90;;;3.60;;
12840;SDS011;6487;48.626;12.486;2022-11-02T03:12:39;4.77;;;4.33;;
12840;SDS011;6487;48.626;12.486;2022-11-02T03:15:19;3.87;;;3.57;;
12840;SDS011;6487;48.626;12.486;2022-11-02T03:17:54;5.20;;;3.70;;
12840;SDS011;6487;48.626;12.486;2022-11-02T03:20:32;5.83;;;3.70;;
12840;SDS011;6487;48.626;12.486;2022-11-02T03:23:11;3.97;;;3.63;;
12840;SDS011;6487;48.626;12.486;2022-11-02T03:25:46;3.90;;;3.47;;
12840;SDS011;6487;48.626;12.486;2022-11-02T03:28:22;3.80;;;3.07;;
12840;SDS011;6487;48.626;12.486;2022-11-02T03:30:58;3.50;;;3.20;;
12840;SDS011;6487;48.626;12.486;2022-11-02T03:33:34;4.70;;;3.50;;
12840;SDS011;6487;48.626;12.486;2022-11-02T03:36:09;3.60;;;3.20;;
12840;SDS011;6487;48.626;12.486;2022-11-02T03:38:42;3.87;;;3.40;;
12840;SDS011;6487;48.626;12.486;2022-11-02T03:41:14;6.03;;;3.57;;
12840;SDS011;6487;48.626;12.486;2022-11-02T03:43:43;3.77;;;3.47;;
12840;SDS011;6487;48.626;12.486;2022-11-02T03:46:16;4.87;;;3.50;;
12840;SDS011;6487;48.626;12.486;2022-11-02T03:48:47;3.60;;;3.30;;
12840;SDS011;6487;48.626;12.486;2022-11-02T03:51:17;4.60;;;3.50;;
12840;SDS011;6487;48.626;12.486;2022-11-02T03:53:48;3.20;;;2.90;;
12840;SDS011;6487;48.626;12.486;2022-11-02T03:56:24;3.93;;;3.17;;
12840;SDS011;6487;48.626;12.486;2022-11-02T03:58:57;3.23;;;2.93;;
12840;SDS011;6487;48.626;12.486;2022-11-02T04:01:27;4.60;;;3.97;;
12840;SDS011;6487;48.626;12.486;2022-11-02T04:03:57;4.13;;;3.57;;
12840;SDS011;6487;48.626;12.486;2022-11-02T04:06:25;4.83;;;3.60;;
12840;SDS011;6487;48.626;12.486;2022-11-02T04:08:54;5.10;;;3.43;;
12840;SDS011;6487;48.626;12.486;2022-11-02T04:11:22;4.70;;;3.60;;
12840;SDS011;6487;48.626;12.486;2022-11-02T04:14:08;3.87;;;3.43;;
12840;SDS011;6487;48.626;12.486;2022-11-02T04:16:55;4.80;;;3.77;;
12840;SDS011;6487;48.626;12.486;2022-11-02T04:19:37;4.73;;;3.47;;
12840;SDS011;6487;48.626;12.486;2022-11-02T04:22:12;4.07;;;3.50;;
12840;SDS011;6487;48.626;12.486;2022-11-02T04:24:54;4.00;;;3.70;;
12840;SDS011;6487;48.626;12.486;2022-11-02T04:27:39;3.40;;;3.10;;
12840;SDS011;6487;48.626;12.486;2022-11-02T04:30:08;4.00;;;3.30;;
12840;SDS011;6487;48.626;12.486;2022-11-02T04:32:39;4.67;;;3.30;;
12840;SDS011;6487;48.626;12.486;2022-11-02T04:35:27;3.57;;;3.27;;
12840;SDS011;6487;48.626;12.486;2022-11-02T04:37:56;5.23;;;3.40;;
12840;SDS011;6487;48.626;12.486;2022-11-02T04:40:43;3.90;;;3.20;;
12840;SDS011;6487;48.626;12.486;2022-11-02T04:43:11;4.07;;;3.27;;
12840;SDS011;6487;48.626;12.486;2022-11-02T04:45:39;4.87;;;3.07;;
12840;SDS011;6487;48.626;12.486;2022-11-02T04:48:09;3.80;;;3.40;;
12840;SDS011;6487;48.626;12.486;2022-11-02T04:50:37;4.23;;;2.83;;
12840;SDS011;6487;48.626;12.486;2022-11-02T04:53:06;5.30;;;3.20;;
12840;SDS011;6487;48.626;12.486;2022-11-02T04:55:34;3.97;;;3.03;;
12840;SDS011;6487;48.626;12.486;2022-11-02T04:58:02;4.00;;;3.60;;
12840;SDS011;6487;48.626;12.486;2022-11-02T05:00:31;5.67;;;3.53;;
12840;SDS011;6487;48.626;12.486;2022-11-02T05:02:59;3.77;;;3.43;;
12840;SDS011;6487;48.626;12.486;2022-11-02T05:05:32;3.80;;;3.40;;
12840;SDS011;6487;48.626;12.486;2022-11-02T05:08:00;5.03;;;3.63;;
12840;SDS011;6487;48.626;12.486;2022-11-02T05:10:29;5.53;;;3.80;;
12840;SDS011;6487;48.626;12.486;2022-11-02T05:12:57;3.83;;;3.43;;
12840;SDS011;6487;48.626;12.486;2022-11-02T05:15:26;4.73;;;3.57;;
12840;SDS011;6487;48.626;12.486;2022-11-02T05:17:55;4.40;;;3.80;;
12840;SDS011;6487;48.626;12.486;2022-11-02T05:20:23;4.17;;;3.77;;
12840;SDS011;6487;48.626;12.486;2022-11-02T05:22:53;4.03;;;3.63;;
12840;SDS011;6487;48.626;12.486;2022-11-02T05:25:21;4.53;;;3.97;;
12840;SDS011;6487;48.626;12.486;2022-11-02T05:27:49;4.97;;;3.80;;
12840;SDS011;6487;48.626;12.486;2022-11-02T05:30:18;4.40;;;3.53;;
12840;SDS011;6487;48.626;12.486;2022-11-02T05:32:46;6.93;;;4.23;;
12840;SDS011;6487;48.626;12.486;2022-11-02T05:35:14;5.43;;;3.70;;
12840;SDS011;6487;48.626;12.486;2022-11-02T05:37:43;5.90;;;3.60;;
12840;SDS011;6487;48.626;12.486;2022-11-02T05:40:12;5.20;;;4.00;;
12840;SDS011;6487;48.626;12.486;2022-11-02T05:42:41;5.40;;;3.57;;
12840;SDS011;6487;48.626;12.486;2022-11-02T05:45:09;7.27;;;5.30;;
12840;SDS011;6487;48.626;12.486;2022-11-02T05:47:37;5.13;;;4.10;;
12840;SDS011;6487;48.626;12.486;2022-11-02T05:50:06;4.40;;;4.00;;
12840;SDS011;6487;48.626;12.486;2022-11-02T05:52:36;4.30;;;3.70;;
12840;SDS011;6487;48.626;12.486;2022-11-02T05:55:04;5.17;;;3.93;;
12840;SDS011;6487;48.626;12.486;2022-11-02T05:57:35;7.00;;;4.70;;
12840;SDS011;6487;48.626;12.486;2022-11-02T06:00:04;7.60;;;4.20;;
12840;SDS011;6487;48.626;12.486;2022-11-02T06:02:33;6.33;;;4.40;;
12840;SDS011;6487;48.626;12.486;2022-11-02T06:05:02;5.97;;;4.20;;
12840;SDS011;6487;48.626;12.486;2022-11-02T06:07:31;5.67;;;4.10;;
12840;SDS011;6487;48.626;12.486;2022-11-02T06:09:59;6.00;;;5.40;;
12840;SDS011;6487;48.626;12.486;2022-11-02T06:12:28;7.50;;;5.40;;
12840;SDS011;6487;48.626;12.486;2022-11-02T06:14:58;8.43;;;6.07;;
12840;SDS011;6487;48.626;12.486;2022-11-02T06:17:26;6.63;;;5.87;;
12840;SDS011;6487;48.626;12.486;2022-11-02T06:19:54;32.27;;;8.07;;
12840;SDS011;6487;48.626;12.486;2022-11-02T06:22:22;25.60;;;7.53;;
12840;SDS011;6487;48.626;12.486;2022-11-02T06:24:51;15.67;;;8.53;;
12840;SDS011;6487;48.626;12.486;2022-11-02T06:27:19;15.37;;;8.83;;
12840;SDS011;6487;48.626;12.486;2022-11-02T06:29:47;11.37;;;8.53;;
12840;SDS011;6487;48.626;12.486;2022-11-02T06:32:17;18.33;;;9.33;;
12840;SDS011;6487;48.626;12.486;2022-11-02T06:34:46;15.33;;;8.80;;
12840;SDS011;6487;48.626;12.486;2022-11-02T06:37:14;28.20;;;9.10;;
12840;SDS011;6487;48.626;12.486;2022-11-02T06:39:42;13.23;;;8.83;;
12840;SDS011;6487;48.626;12.486;2022-11-02T06:42:10;19.33;;;9.40;;
12840;SDS011;6487;48.626;12.486;2022-11-02T06:44:39;12.50;;;9.23;;
12840;SDS011;6487;48.626;12.486;2022-11-02T06:47:07;21.57;;;9.43;;
12840;SDS011;6487;48.626;12.486;2022-11-02T06:49:37;13.37;;;8.80;;
12840;SDS011;6487;48.626;12.486;2022-11-02T06:52:05;14.53;;;8.30;;
12840;SDS011;6487;48.626;12.486;2022-11-02T06:54:33;11.57;;;8.60;;
12840;SDS011;6487;48.626;12.486;2022-11-02T06:57:02;12.40;;;9.60;;
12840;SDS011;6487;48.626;12.486;2022-11-02T06:59:30;12.43;;;9.07;;
12840;SDS011;6487;48.626;12.486;2022-11-02T07:01:58;25.60;;;10.67;;
12840;SDS011;6487;48.626;12.486;2022-11-02T07:04:27;17.70;;;9.70;;
12840;SDS011;6487;48.626;12.486;2022-11-02T07:06:57;17.70;;;9.80;;
12840;SDS011;6487;48.626;12.486;2022-11-02T07:09:25;55.70;;;10.20;;
12840;SDS011;6487;48.626;12.486;2022-11-02T07:11:54;57.23;;;10.80;;
12840;SDS011;6487;48.626;12.486;2022-11-02T07:14:22;30.30;;;8.33;;
12840;SDS011;6487;48.626;12.486;2022-11-02T07:16:50;30.63;;;7.53;;
12840;SDS011;6487;48.626;12.486;2022-11-02T07:19:18;47.97;;;7.67;;
12840;SDS011;6487;48.626;12.486;2022-11-02T07:21:47;34.90;;;6.40;;
12840;SDS011;6487;48.626;12.486;2022-11-02T07:24:16;50.87;;;6.70;;
12840;SDS011;6487;48.626;12.486;2022-11-02T07:26:46;33.07;;;6.17;;
12840;SDS011;6487;48.626;12.486;2022-11-02T07:29:15;42.07;;;8.03;;
12840;SDS011;6487;48.626;12.486;2022-11-02T07:31:44;39.50;;;10.17;;
12840;SDS011;6487;48.626;12.486;2022-11-02T07:34:13;34.20;;;10.73;;
12840;SDS011;6487;48.626;12.486;2022-11-02T07:36:42;17.27;;;8.97;;
12840;SDS011;6487;48.626;12.486;2022-11-02T07:39:11;24.17;;;8.87;;
12840;SDS011;6487;48.626;12.486;2022-11-02T07:41:41;30.83;;;9.17;;
12840;SDS011;6487;48.626;12.486;2022-11-02T07:44:16;25.37;;;8.23;;
12840;SDS011;6487;48.626;12.486;2022-11-02T07:46:44;38.50;;;7.87;;
12840;SDS011;6487;48.626;12.486;2022-11-02T07:49:12;12.27;;;6.77;;
12840;SDS011;6487;48.626;12.486;2022-11-02T07:51:46;14.07;;;7.43;;
12840;SDS011;6487;48.626;12.486;2022-11-02T07:54:15;16.13;;;5.73;;
12840;SDS011;6487;48.626;12.486;2022-11-02T07:56:44;7.20;;;5.43;;
12840;SDS011;6487;48.626;12.486;2022-11-02T07:59:13;14.43;;;6.20;;
12840;SDS011;6487;48.626;12.486;2022-11-02T08:01:41;13.10;;;6.33;;
12840;SDS011;6487;48.626;12.486;2022-11-02T08:04:09;16.77;;;6.73;;
12840;SDS011;6487;48.626;12.486;2022-11-02T08:06:38;8.37;;;5.93;;
12840;SDS011;6487;48.626;12.486;2022-11-02T08:09:06;12.97;;;6.37;;
12840;SDS011;6487;48.626;12.486;2022-11-02T08:11:34;10.33;;;6.43;;
12840;SDS011;6487;48.626;12.486;2022-11-02T08:14:04;6.67;;;6.07;;
12840;SDS011;6487;48.626;12.486;2022-11-02T08:16:32;10.83;;;6.70;;
12840;SDS011;6487;48.626;12.486;2022-11-02T08:19:00;9.90;;;6.30;;
12840;SDS011;6487;48.626;12.486;2022-11-02T08:21:29;8.30;;;7.07;;
12840;SDS011;6487;48.626;12.486;2022-11-02T08:23:57;17.37;;;7.43;;
12840;SDS011;6487;48.626;12.486;2022-11-02T08:26:25;7.77;;;7.03;;
12840;SDS011;6487;48.626;12.486;2022-11-02T08:28:54;8.53;;;7.63;;
12840;SDS011;6487;48.626;12.486;2022-11-02T08:31:23;9.43;;;8.23;;
12840;SDS011;6487;48.626;12.486;2022-11-02T08:33:52;15.07;;;7.73;;
12840;SDS011;6487;48.626;12.486;2022-11-02T08:36:20;8.23;;;7.47;;
12840;SDS011;6487;48.626;12.486;2022-11-02T08:38:48;8.50;;;7.70;;
12840;SDS011;6487;48.626;12.486;2022-11-02T08:41:17;10.40;;;8.33;;
12840;SDS011;6487;48.626;12.486;2022-11-02T08:43:45;11.23;;;8.77;;
12840;SDS011;6487;48.626;12.486;2022-11-02T08:46:13;11.87;;;8.57;;
12840;SDS011;6487;48.626;12.486;2022-11-02T08:48:44;9.67;;;8.67;;
12840;SDS011;6487;48.626;12.486;2022-11-02T08:51:12;10.10;;;8.40;;
12840;SDS011;6487;48.626;12.486;2022-11-02T08:53:40;10.00;;;9.10;;
12840;SDS011;6487;48.626;12.486;2022-11-02T08:56:16;9.60;;;8.77;;
12840;SDS011;6487;48.626;12.486;2022-11-02T08:58:45;8.43;;;7.63;;
12840;SDS011;6487;48.626;12.486;2022-11-02T09:01:13;8.00;;;7.00;;
12840;SDS011;6487;48.626;12.486;2022-11-02T09:03:43;8.10;;;7.40;;
12840;SDS011;6487;48.626;12.486;2022-11-02T09:06:11;8.77;;;8.03;;
12840;SDS011;6487;48.626;12.486;2022-11-02T09:08:40;8.60;;;7.90;;
12840;SDS011;6487;48.626;12.486;2022-11-02T09:11:08;9.77;;;8.87;;
12840;SDS011;6487;48.626;12.486;2022-11-02T09:13:37;9.40;;;8.50;;
12840;SDS011;6487;48.626;12.486;2022-11-02T09:16:05;10.63;;;9.60;;
12840;SDS011;6487;48.626;12.486;2022-11-02T09:18:34;9.70;;;8.80;;
12840;SDS011;6487;48.626;12.486;2022-11-02T09:21:05;10.37;;;9.27;;
12840;SDS011;6487;48.626;12.486;2022-11-02T09:23:34;10.17;;;9.10;;
12840;SDS011;6487;48.626;12.486;2022-11-02T09:26:02;10.50;;;9.40;;
12840;SDS011;6487;48.626;12.486;2022-11-02T09:28:31;9.00;;;8.20;;
12840;SDS011;6487;48.626;12.486;2022-11-02T09:30:59;10.43;;;9.33;;
12840;SDS011;6487;48.626;12.486;2022-11-02T09:33:32;10.53;;;9.53;;
12840;SDS011;6487;48.626;12.486;2022-11-02T09:36:02;11.90;;;10.13;;
12840;SDS011;6487;48.626;12.486;2022-11-02T09:38:33;11.27;;;10.07;;
12840;SDS011;6487;48.626;12.486;2022-11-02T09:41:05;10.57;;;9.37;;
12840;SDS011;6487;48.626;12.486;2022-11-02T09:43:49;11.13;;;9.77;;
12840;SDS011;6487;48.626;12.486;2022-11-02T09:46:24;9.17;;;8.20;;
12840;SDS011;6487;48.626;12.486;2022-11-02T09:48:57;10.50;;;8.53;;
12840;SDS011;6487;48.626;12.486;2022-11-02T09:51:32;9.07;;;7.83;;
12840;SDS011;6487;48.626;12.486;2022-11-02T09:54:07;8.50;;;7.37;;
12840;SDS011;6487;48.626;12.486;2022-11-02T09:56:43;8.17;;;6.67;;
12840;SDS011;6487;48.626;12.486;2022-11-02T09:59:13;8.93;;;6.73;;
12840;SDS011;6487;48.626;12.486;2022-11-02T10:01:55;6.23;;;5.60;;
12840;SDS011;6487;48.626;12.486;2022-11-02T10:04:50;6.43;;;5.47;;
12840;SDS011;6487;48.626;12.486;2022-11-02T10:07:39;7.90;;;6.13;;
12840;SDS011;6487;48.626;12.486;2022-11-02T10:10:36;7.93;;;5.70;;
12840;SDS011;6487;48.626;12.486;2022-11-02T10:13:11;7.20;;;5.33;;
12840;SDS011;6487;48.626;12.486;2022-11-02T10:15:51;5.30;;;4.80;;
12840;SDS011;6487;48.626;12.486;2022-11-02T10:18:23;6.10;;;4.33;;
12840;SDS011;6487;48.626;12.486;2022-11-02T10:20:55;3.00;;;2.67;;
12840;SDS011;6487;48.626;12.486;2022-11-02T10:23:29;4.27;;;2.83;;
12840;SDS011;6487;48.626;12.486;2022-11-02T10:26:02;4.07;;;2.47;;
12840;SDS011;6487;48.626;12.486;2022-11-02T10:28:31;5.50;;;2.90;;
12840;SDS011;6487;48.626;12.486;2022-11-02T10:31:03;6.17;;;2.33;;
12840;SDS011;6487;48.626;12.486;2022-11-02T10:33:47;2.87;;;2.23;;
12840;SDS011;6487;48.626;12.486;2022-11-02T10:36:24;3.83;;;2.40;;
12840;SDS011;6487;48.626;12.486;2022-11-02T10:39:18;2.53;;;2.10;;
12840;SDS011;6487;48.626;12.486;2022-11-02T10:41:57;4.20;;;2.17;;
12840;SDS011;6487;48.626;12.486;2022-11-02T10:44:47;4.43;;;1.90;;
12840;SDS011;6487;48.626;12.486;2022-11-02T10:47:34;3.97;;;2.30;;
12840;SDS011;6487;48.626;12.486;2022-11-02T10:53:14;4.67;;;2.33;;
12840;SDS011;6487;48.626;12.486;2022-11-02T10:56:09;5.10;;;2.47;;
12840;SDS011;6487;48.626;12.486;2022-11-02T10:58:44;3.80;;;2.90;;
12840;SDS011;6487;48.626;12.486;2022-11-02T11:01:17;4.73;;;2.80;;
12840;SDS011;6487;48.626;12.486;2022-11-02T11:03:53;3.30;;;2.40;;
12840;SDS011;6487;48.626;12.486;2022-11-02T11:06:25;3.10;;;2.20;;
12840;SDS011;6487;48.626;12.486;2022-11-02T11:09:00;4.83;;;2.30;;
12840;SDS011;6487;48.626;12.486;2022-11-02T11:11:34;4.53;;;2.20;;
12840;SDS011;6487;48.626;12.486;2022-11-02T11:14:04;4.10;;;2.57;;
12840;SDS011;6487;48.626;12.486;2022-11-02T11:17:02;4.53;;;2.57;;
12840;SDS011;6487;48.626;12.486;2022-11-02T11:20:03;3.40;;;2.00;;
12840;SDS011;6487;48.626;12.486;2022-11-02T11:22:35;3.27;;;1.87;;
12840;SDS011;6487;48.626;12.486;2022-11-02T11:25:18;2.33;;;1.90;;
12840;SDS011;6487;48.626;12.486;2022-11-02T11:27:55;5.40;;;2.40;;
12840;SDS011;6487;48.626;12.486;2022-11-02T11:30:25;3.30;;;1.60;;
12840;SDS011;6487;48.626;12.486;2022-11-02T11:33:16;5.07;;;1.80;;
12840;SDS011;6487;48.626;12.486;2022-11-02T11:35:48;8.70;;;2.50;;
12840;SDS011;6487;48.626;12.486;2022-11-02T11:38:18;4.03;;;2.00;;
12840;SDS011;6487;48.626;12.486;2022-11-02T11:40:50;4.73;;;2.30;;
12840;SDS011;6487;48.626;12.486;2022-11-02T11:43:22;4.40;;;2.07;;
12840;SDS011;6487;48.626;12.486;2022-11-02T11:45:53;2.43;;;1.77;;
12840;SDS011;6487;48.626;12.486;2022-11-02T11:48:33;6.13;;;2.03;;
12840;SDS011;6487;48.626;12.486;2022-11-02T11:51:09;2.73;;;1.80;;
12840;SDS011;6487;48.626;12.486;2022-11-02T11:54:05;3.37;;;1.60;;
12840;SDS011;6487;48.626;12.486;2022-11-02T11:56:46;5.57;;;1.97;;
12840;SDS011;6487;48.626;12.486;2022-11-02T11:59:21;4.17;;;2.30;;
12840;SDS011;6487;48.626;12.486;2022-11-02T12:01:56;2.80;;;2.07;;
12840;SDS011;6487;48.626;12.486;2022-11-02T12:04:28;6.07;;;2.10;;
12840;SDS011;6487;48.626;12.486;2022-11-02T12:07:04;6.90;;;2.23;;
12840;SDS011;6487;48.626;12.486;2022-11-02T12:09:51;7.43;;;3.17;;
12840;SDS011;6487;48.626;12.486;2022-11-02T12:12:33;7.27;;;2.00;;
12840;SDS011;6487;48.626;12.486;2022-11-02T12:15:19;5.37;;;1.73;;
12840;SDS011;6487;48.626;12.486;2022-11-02T12:18:05;2.70;;;1.57;;
12840;SDS011;6487;48.626;12.486;2022-11-02T12:20:55;4.73;;;1.93;;
12840;SDS011;6487;48.626;12.486;2022-11-02T12:23:44;3.87;;;2.00;;
12840;SDS011;6487;48.626;12.486;2022-11-02T12:26:29;5.43;;;1.93;;
12840;SDS011;6487;48.626;12.486;2022-11-02T12:29:16;6.77;;;2.20;;
12840;SDS011;6487;48.626;12.486;2022-11-02T12:32:11;4.07;;;2.43;;
12840;SDS011;6487;48.626;12.486;2022-11-02T12:35:05;15.80;;;8.03;;
12840;SDS011;6487;48.626;12.486;2022-11-02T12:38:00;9.67;;;4.47;;
12840;SDS011;6487;48.626;12.486;2022-11-02T12:40:44;5.20;;;2.43;;
12840;SDS011;6487;48.626;12.486;2022-11-02T12:43:28;4.57;;;2.23;;
12840;SDS011;6487;48.626;12.486;2022-11-02T12:46:15;3.47;;;2.10;;
12840;SDS011;6487;48.626;12.486;2022-11-02T12:49:12;2.87;;;1.50;;
12840;SDS011;6487;48.626;12.486;2022-11-02T12:52:02;2.50;;;1.43;;
12840;SDS011;6487;48.626;12.486;2022-11-02T12:54:44;5.97;;;1.73;;
12840;SDS011;6487;48.626;12.486;2022-11-02T12:57:15;2.83;;;1.13;;
12840;SDS011;6487;48.626;12.486;2022-11-02T12:59:47;2.30;;;1.17;;
12840;SDS011;6487;48.626;12.486;2022-11-02T13:02:22;2.53;;;1.13;;
12840;SDS011;6487;48.626;12.486;2022-11-02T13:04:56;3.40;;;0.90;;
12840;SDS011;6487;48.626;12.486;2022-11-02T13:07:30;4.40;;;1.50;;
12840;SDS011;6487;48.626;12.486;2022-11-02T13:10:03;2.77;;;1.23;;
12840;SDS011;6487;48.626;12.486;2022-11-02T13:12:40;3.33;;;1.40;;
12840;SDS011;6487;48.626;12.486;2022-11-02T13:15:11;3.33;;;1.30;;
12840;SDS011;6487;48.626;12.486;2022-11-02T13:17:44;3.77;;;1.50;;
12840;SDS011;6487;48.626;12.486;2022-11-02T13:20:19;4.37;;;1.53;;
12840;SDS011;6487;48.626;12.486;2022-11-02T13:22:53;3.03;;;1.00;;
12840;SDS011;6487;48.626;12.486;2022-11-02T13:25:25;5.50;;;1.63;;
12840;SDS011;6487;48.626;12.486;2022-11-02T13:28:00;4.93;;;1.17;;
12840;SDS011;6487;48.626;12.486;2022-11-02T13:30:33;2.27;;;1.10;;
12840;SDS011;6487;48.626;12.486;2022-11-02T13:33:02;4.87;;;1.27;;
12840;SDS011;6487;48.626;12.486;2022-11-02T13:35:38;2.70;;;1.13;;
12840;SDS011;6487;48.626;12.486;2022-11-02T13:38:10;5.53;;;1.30;;
12840;SDS011;6487;48.626;12.486;2022-11-02T13:40:53;3.67;;;1.10;;
12840;SDS011;6487;48.626;12.486;2022-11-02T13:49:41;4.73;;;1.53;;
12840;SDS011;6487;48.626;12.486;2022-11-02T13:52:13;5.20;;;1.47;;
12840;SDS011;6487;48.626;12.486;2022-11-02T13:54:44;2.20;;;1.30;;
12840;SDS011;6487;48.626;12.486;2022-11-02T13:57:20;3.93;;;1.33;;
12840;SDS011;6487;48.626;12.486;2022-11-02T13:59:58;5.50;;;1.33;;
12840;SDS011;6487;48.626;12.486;2022-11-02T14:02:31;3.60;;;1.30;;
12840;SDS011;6487;48.626;12.486;2022-11-02T14:05:03;4.60;;;1.47;;
12840;SDS011;6487;48.626;12.486;2022-11-02T14:07:34;6.37;;;1.50;;
12840;SDS011;6487;48.626;12.486;2022-11-02T14:10:07;4.33;;;1.50;;
12840;SDS011;6487;48.626;12.486;2022-11-02T14:12:43;3.20;;;1.40;;
12840;SDS011;6487;48.626;12.486;2022-11-02T14:18:27;2.13;;;1.33;;
12840;SDS011;6487;48.626;12.486;2022-11-02T14:20:57;3.63;;;1.40;;
12840;SDS011;6487;48.626;12.486;2022-11-02T14:27:31;4.77;;;1.53;;
12840;SDS011;6487;48.626;12.486;2022-11-02T14:30:00;2.13;;;1.17;;
12840;SDS011;6487;48.626;12.486;2022-11-02T14:32:39;2.70;;;1.27;;
12840;SDS011;6487;48.626;12.486;2022-11-02T14:35:26;3.67;;;1.47;;
12840;SDS011;6487;48.626;12.486;2022-11-02T14:38:12;3.07;;;1.33;;
12840;SDS011;6487;48.626;12.486;2022-11-02T14:41:06;3.63;;;1.87;;
12840;SDS011;6487;48.626;12.486;2022-11-02T14:43:57;2.30;;;1.37;;
12840;SDS011;6487;48.626;12.486;2022-11-02T14:46:55;1.43;;;1.20;;
12840;SDS011;6487;48.626;12.486;2022-11-02T14:49:29;4.90;;;1.40;;
12840;SDS011;6487;48.626;12.486;2022-11-02T14:52:01;3.13;;;1.60;;
12840;SDS011;6487;48.626;12.486;2022-11-02T14:54:35;6.43;;;1.50;;
12840;SDS011;6487;48.626;12.486;2022-11-02T14:57:20;3.93;;;1.67;;
12840;SDS011;6487;48.626;12.486;2022-11-02T14:59:52;3.23;;;1.43;;
12840;SDS011;6487;48.626;12.486;2022-11-02T15:02:26;3.30;;;1.20;;
12840;SDS011;6487;48.626;12.486;2022-11-02T15:04:58;2.63;;;1.30;;
12840;SDS011;6487;48.626;12.486;2022-11-02T15:07:31;3.40;;;1.50;;
12840;SDS011;6487;48.626;12.486;2022-11-02T15:10:03;3.40;;;1.20;;
12840;SDS011;6487;48.626;12.486;2022-11-02T15:16:14;3.43;;;1.77;;
12840;SDS011;6487;48.626;12.486;2022-11-02T15:18:50;4.07;;;1.40;;
12840;SDS011;6487;48.626;12.486;2022-11-02T15:21:22;4.27;;;1.37;;
12840;SDS011;6487;48.626;12.486;2022-11-02T15:23:57;1.63;;;1.37;;
12840;SDS011;6487;48.626;12.486;2022-11-02T15:26:40;2.67;;;1.63;;
12840;SDS011;6487;48.626;12.486;2022-11-02T15:29:29;4.40;;;1.43;;
12840;SDS011;6487;48.626;12.486;2022-11-02T15:32:03;2.83;;;1.30;;
12840;SDS011;6487;48.626;12.486;2022-11-02T15:35:00;3.23;;;1.30;;
12840;SDS011;6487;48.626;12.486;2022-11-02T15:37:30;3.07;;;1.30;;
12840;SDS011;6487;48.626;12.486;2022-11-02T15:40:20;8.07;;;5.97;;
12840;SDS011;6487;48.626;12.486;2022-11-02T15:42:56;6.00;;;4.23;;
12840;SDS011;6487;48.626;12.486;2022-11-02T15:45:43;4.73;;;2.63;;
12840;SDS011;6487;48.626;12.486;2022-11-02T15:48:31;4.67;;;2.57;;